Maysora — C6RI4 — position and weather

sailwx.info

Track history (hours):
 
Tides and Currents Weather Stations Pressure Air Temp Water Temp Dewpoint Dewpoint Depression Visibility Wind Speed Wind Dir Waves Ship Positions

Maysora

Last reported at 2018-Jul-02 20:02 UTC. Time now 2018-Jul-17 11:41 UTC.
Position N 28°08' W 016°14'.
Warning: this ship's position is 14 days out of date.

Length 195.7 m; beam 28.4 m; draft 10 m.

MMSI: 311040000.

Date/timePositionNaut miles runAvg speedWind from/ knotsBaromVisibWave heightAir tempDewpointWater temp
2018-Jul-02 20:02N 28°08' W 016°14'217.6
2018-Jul-02 19:53N 28°10' W 016°12'717.5
2018-Jul-02 19:30N 28°14' W 016°07'917.2
2018-Jul-02 19:00N 28°21' W 016°00'816.4
2018-Jul-02 18:30N 28°27' W 015°54'816.2
2018-Jul-02 18:00N 28°34' W 015°49'816.2
2018-Jul-02 17:29N 28°40' W 015°42'816.3
2018-Jul-02 17:00N 28°45' W 015°35'816.2
2018-Jul-02 16:30N 28°50' W 015°28'816.5
2018-Jul-02 16:00N 28°56' W 015°21'916.5
2018-Jul-02 15:26N 29°02' W 015°14'816.4
2018-Jul-02 14:58N 29°08' W 015°07'1116.4
2018-Jul-02 14:20N 29°15' W 014°58'516.3
2018-Jul-02 14:00N 29°18' W 014°54'1116.0
2018-Jul-02 13:19N 29°26' W 014°45'716.0
2018-Jul-02 12:51N 29°31' W 014°39'616.6
2018-Jul-02 12:30N 29°35' W 014°34'916.8
2018-Jul-02 11:59N 29°41' W 014°26'58315.9
2018-Jun-30 23:20N 35°58' W 005°38'513.7
2018-Jun-30 23:01N 35°59' W 005°32'612.7
2018-Jun-30 22:31N 36°01' W 005°25'611.5
2018-Jun-30 22:01N 36°02' W 005°18'713.3
2018-Jun-30 21:30N 36°03' W 005°10'29515.2
2018-Jun-30 02:05N 36°50' E 000°53'215.4
2018-Jun-30 01:57N 36°51' E 000°55'3015.5
2018-Jun-30 00:00N 36°55' E 001°33'4915.8
2018-Jun-29 20:54N 37°03' E 002°33'1716.2
2018-Jun-29 19:52N 37°06' E 002°54'3517.2
2018-Jun-29 17:52N 37°12' E 003°36'617.1
2018-Jun-29 17:30N 37°13' E 003°44'917.1
2018-Jun-29 17:00N 37°14' E 003°55'816.7
2018-Jun-29 16:31N 37°16' E 004°05'816.4
2018-Jun-29 16:00N 37°17' E 004°15'816.3
2018-Jun-29 15:30N 37°18' E 004°25'816.3
2018-Jun-29 15:00N 37°20' E 004°35'816.4
2018-Jun-29 14:30N 37°21' E 004°45'816.5
2018-Jun-29 14:01N 37°23' E 004°56'816.7
2018-Jun-29 13:30N 37°23' E 005°06'816.6
2018-Jun-29 13:00N 37°25' E 005°17'816.6
2018-Jun-29 12:30N 37°26' E 005°27'816.5
2018-Jun-29 12:00N 37°27' E 005°37'916.6
2018-Jun-29 11:27N 37°28' E 005°48'1216.4
2018-Jun-29 10:43N 37°30' E 006°04'316.1
2018-Jun-29 10:31N 37°31' E 006°08'916.1
2018-Jun-29 09:59N 37°32' E 006°18'8116.5
2018-Jun-29 05:04N 37°45' E 007°59'216.1
2018-Jun-29 04:57N 37°46' E 008°02'21115.6
2018-Jun-28 15:25N 36°58' E 012°21'716.4
2018-Jun-28 14:59N 36°55' E 012°28'816.4
2018-Jun-28 14:30N 36°51' E 012°37'816.4
2018-Jun-28 14:00N 36°48' E 012°47'816.2
2018-Jun-28 13:30N 36°44' E 012°56'815.6
2018-Jun-28 13:00N 36°41' E 013°04'815.5
2018-Jun-28 12:29N 36°37' E 013°14'715.1
2018-Jun-28 12:00N 36°35' E 013°22'714.4
2018-Jun-28 11:30N 36°31' E 013°30'714.7
2018-Jun-28 11:00N 36°28' E 013°38'814.9
2018-Jun-28 10:30N 36°25' E 013°47'714.9
2018-Jun-28 10:00N 36°22' E 013°55'814.7
2018-Jun-28 09:29N 36°20' E 014°04'714.9
2018-Jun-28 09:00N 36°20' E 014°13'714.8
2018-Jun-28 08:30N 36°19' E 014°22'714.9
2018-Jun-28 08:00N 36°19' E 014°31'815.1
2018-Jun-28 07:30N 36°19' E 014°41'1015.2
2018-Jun-28 06:50N 36°18' E 014°53'515.2
2018-Jun-28 06:29N 36°18' E 014°60'1215.2
2018-Jun-28 05:41N 36°17' E 015°15'  
Track history (hours):
 
Tides and Currents Weather Stations Pressure Air Temp Water Temp Dewpoint Dewpoint Depression Visibility Wind Speed Wind Dir Waves Ship Positions

Maysora

Last reported at 2018-Jul-02 20:02 UTC. Time now 2018-Jul-17 11:41 UTC.
Position N 28°08' W 016°14'.
Warning: this ship's position is 14 days out of date.

Length 195.7 m; beam 28.4 m; draft 10 m.

MMSI: 311040000.

Date/timePositionNaut miles runAvg speedWind from/ knotsBaromVisibWave heightAir tempDewpointWater temp
2018-Jul-02 20:02N 28°08' W 016°14'217.6
2018-Jul-02 19:53N 28°10' W 016°12'717.5
2018-Jul-02 19:30N 28°14' W 016°07'917.2
2018-Jul-02 19:00N 28°21' W 016°00'816.4
2018-Jul-02 18:30N 28°27' W 015°54'816.2
2018-Jul-02 18:00N 28°34' W 015°49'816.2
2018-Jul-02 17:29N 28°40' W 015°42'816.3
2018-Jul-02 17:00N 28°45' W 015°35'816.2
2018-Jul-02 16:30N 28°50' W 015°28'816.5
2018-Jul-02 16:00N 28°56' W 015°21'916.5
2018-Jul-02 15:26N 29°02' W 015°14'816.4
2018-Jul-02 14:58N 29°08' W 015°07'1116.4
2018-Jul-02 14:20N 29°15' W 014°58'516.3
2018-Jul-02 14:00N 29°18' W 014°54'1116.0
2018-Jul-02 13:19N 29°26' W 014°45'716.0
2018-Jul-02 12:51N 29°31' W 014°39'616.6
2018-Jul-02 12:30N 29°35' W 014°34'916.8
2018-Jul-02 11:59N 29°41' W 014°26'58315.9
2018-Jun-30 23:20N 35°58' W 005°38'513.7
2018-Jun-30 23:01N 35°59' W 005°32'612.7
2018-Jun-30 22:31N 36°01' W 005°25'611.5
2018-Jun-30 22:01N 36°02' W 005°18'713.3
2018-Jun-30 21:30N 36°03' W 005°10'29515.2
2018-Jun-30 02:05N 36°50' E 000°53'215.4
2018-Jun-30 01:57N 36°51' E 000°55'3015.5
2018-Jun-30 00:00N 36°55' E 001°33'4915.8
2018-Jun-29 20:54N 37°03' E 002°33'1716.2
2018-Jun-29 19:52N 37°06' E 002°54'3517.2
2018-Jun-29 17:52N 37°12' E 003°36'617.1
2018-Jun-29 17:30N 37°13' E 003°44'917.1
2018-Jun-29 17:00N 37°14' E 003°55'816.7
2018-Jun-29 16:31N 37°16' E 004°05'816.4
2018-Jun-29 16:00N 37°17' E 004°15'816.3
2018-Jun-29 15:30N 37°18' E 004°25'816.3
2018-Jun-29 15:00N 37°20' E 004°35'816.4
2018-Jun-29 14:30N 37°21' E 004°45'816.5
2018-Jun-29 14:01N 37°23' E 004°56'816.7
2018-Jun-29 13:30N 37°23' E 005°06'816.6
2018-Jun-29 13:00N 37°25' E 005°17'816.6
2018-Jun-29 12:30N 37°26' E 005°27'816.5
2018-Jun-29 12:00N 37°27' E 005°37'916.6
2018-Jun-29 11:27N 37°28' E 005°48'1216.4
2018-Jun-29 10:43N 37°30' E 006°04'316.1
2018-Jun-29 10:31N 37°31' E 006°08'916.1
2018-Jun-29 09:59N 37°32' E 006°18'8116.5
2018-Jun-29 05:04N 37°45' E 007°59'216.1
2018-Jun-29 04:57N 37°46' E 008°02'21115.6
2018-Jun-28 15:25N 36°58' E 012°21'716.4
2018-Jun-28 14:59N 36°55' E 012°28'816.4
2018-Jun-28 14:30N 36°51' E 012°37'816.4
2018-Jun-28 14:00N 36°48' E 012°47'816.2
2018-Jun-28 13:30N 36°44' E 012°56'815.6
2018-Jun-28 13:00N 36°41' E 013°04'815.5
2018-Jun-28 12:29N 36°37' E 013°14'715.1
2018-Jun-28 12:00N 36°35' E 013°22'714.4
2018-Jun-28 11:30N 36°31' E 013°30'714.7
2018-Jun-28 11:00N 36°28' E 013°38'814.9
2018-Jun-28 10:30N 36°25' E 013°47'714.9
2018-Jun-28 10:00N 36°22' E 013°55'814.7
2018-Jun-28 09:29N 36°20' E 014°04'714.9
2018-Jun-28 09:00N 36°20' E 014°13'714.8
2018-Jun-28 08:30N 36°19' E 014°22'714.9
2018-Jun-28 08:00N 36°19' E 014°31'815.1
2018-Jun-28 07:30N 36°19' E 014°41'1015.2
2018-Jun-28 06:50N 36°18' E 014°53'515.2
2018-Jun-28 06:29N 36°18' E 014°60'1215.2
2018-Jun-28 05:41N 36°17' E 015°15'  

Dump ship's entire track history